sensor_id;sensor_type;location;lat;lon;timestamp;pressure;altitude;pressure_sealevel;temperature;humidity
1726;BME280;41776;48.260;8.928;2024-02-23T00:01:31;52325.56;;;-145.69;64.41
1726;BME280;41776;48.260;8.928;2024-02-23T00:03:57;52303.78;;;-145.69;65.56
1726;BME280;41776;48.260;8.928;2024-02-23T00:06:23;52333.47;;;-145.69;65.90
1726;BME280;41776;48.260;8.928;2024-02-23T00:08:52;52323.59;;;-145.69;67.06
1726;BME280;41776;48.260;8.928;2024-02-23T00:11:21;52313.69;;;-145.69;67.30
1726;BME280;41776;48.260;8.928;2024-02-23T00:13:47;52355.28;;;-145.69;67.82
1726;BME280;41776;48.260;8.928;2024-02-23T00:16:14;52321.59;;;-145.69;67.16
1726;BME280;41776;48.260;8.928;2024-02-23T00:18:40;52317.66;;;-145.69;68.51
1726;BME280;41776;48.260;8.928;2024-02-23T00:21:07;52367.16;;;-145.69;68.69
1726;BME280;41776;48.260;8.928;2024-02-23T00:23:33;52325.56;;;-145.69;68.12
1726;BME280;41776;48.260;8.928;2024-02-23T00:26:00;52349.31;;;-145.69;67.80
1726;BME280;41776;48.260;8.928;2024-02-23T00:28:27;52353.28;;;-145.69;67.85
1726;BME280;41776;48.260;8.928;2024-02-23T00:30:54;52345.38;;;-145.69;68.16
1726;BME280;41776;48.260;8.928;2024-02-23T00:33:20;52345.38;;;-145.69;68.08
1726;BME280;41776;48.260;8.928;2024-02-23T00:35:47;52319.63;;;-145.69;68.08
1726;BME280;41776;48.260;8.928;2024-02-23T00:38:13;52317.66;;;-145.69;68.79
1726;BME280;41776;48.260;8.928;2024-02-23T00:40:39;52349.31;;;-145.69;69.15
1726;BME280;41776;48.260;8.928;2024-02-23T00:43:06;52341.41;;;-145.69;68.48
1726;BME280;41776;48.260;8.928;2024-02-23T00:45:34;52333.47;;;-145.69;69.06
1726;BME280;41776;48.260;8.928;2024-02-23T00:48:00;52331.50;;;-145.69;69.59
1726;BME280;41776;48.260;8.928;2024-02-23T00:50:27;52345.38;;;-145.69;68.87
1726;BME280;41776;48.260;8.928;2024-02-23T00:52:54;52331.50;;;-145.69;69.46
1726;BME280;41776;48.260;8.928;2024-02-23T00:55:20;52339.44;;;-145.69;69.39
1726;BME280;41776;48.260;8.928;2024-02-23T00:57:47;52319.63;;;-145.69;69.19
1726;BME280;41776;48.260;8.928;2024-02-23T01:00:13;52351.31;;;-145.69;70.40
1726;BME280;41776;48.260;8.928;2024-02-23T01:02:42;52305.75;;;-145.69;70.01
1726;BME280;41776;48.260;8.928;2024-02-23T01:05:08;52357.25;;;-145.69;69.74
1726;BME280;41776;48.260;8.928;2024-02-23T01:07:35;52337.44;;;-145.69;69.13
1726;BME280;41776;48.260;8.928;2024-02-23T01:10:02;52325.56;;;-145.69;69.14
1726;BME280;41776;48.260;8.928;2024-02-23T01:12:29;52371.13;;;-145.69;69.31
1726;BME280;41776;48.260;8.928;2024-02-23T01:14:55;52349.31;;;-145.69;69.49
1726;BME280;41776;48.260;8.928;2024-02-23T01:17:21;52319.63;;;-145.69;69.17
1726;BME280;41776;48.260;8.928;2024-02-23T01:19:49;52351.31;;;-145.69;68.41
1726;BME280;41776;48.260;8.928;2024-02-23T01:22:17;52337.44;;;-145.69;67.83
1726;BME280;41776;48.260;8.928;2024-02-23T01:24:43;52313.69;;;-145.69;67.87
1726;BME280;41776;48.260;8.928;2024-02-23T01:27:09;52343.38;;;-145.69;67.83
1726;BME280;41776;48.260;8.928;2024-02-23T01:29:36;52361.22;;;-145.69;67.59
1726;BME280;41776;48.260;8.928;2024-02-23T01:32:03;52355.28;;;-145.69;68.14
1726;BME280;41776;48.260;8.928;2024-02-23T01:34:29;52333.47;;;-145.69;67.69
1726;BME280;41776;48.260;8.928;2024-02-23T01:36:57;52349.31;;;-145.69;68.57
1726;BME280;41776;48.260;8.928;2024-02-23T01:39:23;52361.22;;;-145.69;68.44
1726;BME280;41776;48.260;8.928;2024-02-23T01:41:50;52307.75;;;-145.69;68.56
1726;BME280;41776;48.260;8.928;2024-02-23T01:44:16;52345.38;;;-145.69;69.61
1726;BME280;41776;48.260;8.928;2024-02-23T01:46:45;52305.75;;;-145.69;68.97
1726;BME280;41776;48.260;8.928;2024-02-23T01:49:12;52353.28;;;-145.69;69.25
1726;BME280;41776;48.260;8.928;2024-02-23T01:51:39;52325.56;;;-145.69;68.74
1726;BME280;41776;48.260;8.928;2024-02-23T01:54:08;52355.28;;;-145.69;68.20
1726;BME280;41776;48.260;8.928;2024-02-23T01:56:35;52337.44;;;-145.69;68.39
1726;BME280;41776;48.260;8.928;2024-02-23T01:59:05;52355.28;;;-145.69;68.38
1726;BME280;41776;48.260;8.928;2024-02-23T02:01:32;52343.38;;;-145.69;68.40
1726;BME280;41776;48.260;8.928;2024-02-23T02:03:59;52333.47;;;-145.69;69.35
1726;BME280;41776;48.260;8.928;2024-02-23T02:06:25;52329.53;;;-145.69;68.30
1726;BME280;41776;48.260;8.928;2024-02-23T02:08:51;52349.31;;;-145.69;68.69
1726;BME280;41776;48.260;8.928;2024-02-23T02:11:19;52313.69;;;-145.69;68.20
1726;BME280;41776;48.260;8.928;2024-02-23T02:13:46;52353.28;;;-145.69;68.48
1726;BME280;41776;48.260;8.928;2024-02-23T02:16:12;52357.25;;;-145.69;68.06
1726;BME280;41776;48.260;8.928;2024-02-23T02:18:39;52293.88;;;-145.69;68.07
1726;BME280;41776;48.260;8.928;2024-02-23T02:21:05;52349.31;;;-145.69;67.47
1726;BME280;41776;48.260;8.928;2024-02-23T02:23:32;52349.31;;;-145.69;67.63
1726;BME280;41776;48.260;8.928;2024-02-23T02:25:58;52333.47;;;-145.69;67.14
1726;BME280;41776;48.260;8.928;2024-02-23T02:28:26;52315.66;;;-145.69;68.00
1726;BME280;41776;48.260;8.928;2024-02-23T02:30:53;52343.38;;;-145.69;68.15
1726;BME280;41776;48.260;8.928;2024-02-23T02:33:19;52349.31;;;-145.69;68.23
1726;BME280;41776;48.260;8.928;2024-02-23T02:35:48;52357.25;;;-145.69;68.79
1726;BME280;41776;48.260;8.928;2024-02-23T02:38:15;52293.88;;;-145.69;68.33
1726;BME280;41776;48.260;8.928;2024-02-23T02:40:41;52361.22;;;-145.69;68.69
1726;BME280;41776;48.260;8.928;2024-02-23T02:43:08;52327.53;;;-145.69;68.29
1726;BME280;41776;48.260;8.928;2024-02-23T02:45:35;52347.34;;;-145.69;68.62
1726;BME280;41776;48.260;8.928;2024-02-23T02:48:03;52337.44;;;-145.69;68.27
1726;BME280;41776;48.260;8.928;2024-02-23T02:50:29;52321.59;;;-145.69;68.35
1726;BME280;41776;48.260;8.928;2024-02-23T02:52:56;52365.16;;;-145.69;68.26
1726;BME280;41776;48.260;8.928;2024-02-23T02:55:22;52321.59;;;-145.69;68.31
1726;BME280;41776;48.260;8.928;2024-02-23T02:57:48;52369.13;;;-145.69;68.16
1726;BME280;41776;48.260;8.928;2024-02-23T03:00:15;52365.16;;;-145.69;68.10
1726;BME280;41776;48.260;8.928;2024-02-23T03:02:43;52381.00;;;-145.69;68.94
1726;BME280;41776;48.260;8.928;2024-02-23T03:05:09;52367.16;;;-145.69;68.57
1726;BME280;41776;48.260;8.928;2024-02-23T03:07:36;52329.53;;;-145.69;68.62
1726;BME280;41776;48.260;8.928;2024-02-23T03:10:03;52341.41;;;-145.69;68.69
1726;BME280;41776;48.260;8.928;2024-02-23T03:12:29;52321.59;;;-145.69;68.40
1726;BME280;41776;48.260;8.928;2024-02-23T03:14:56;52341.41;;;-145.69;68.43
1726;BME280;41776;48.260;8.928;2024-02-23T03:17:22;52325.56;;;-145.69;68.21
1726;BME280;41776;48.260;8.928;2024-02-23T03:19:50;52333.47;;;-145.69;68.23
1726;BME280;41776;48.260;8.928;2024-02-23T03:22:16;52349.31;;;-145.69;67.77
1726;BME280;41776;48.260;8.928;2024-02-23T03:24:43;52333.47;;;-145.69;68.22
1726;BME280;41776;48.260;8.928;2024-02-23T03:27:09;52335.47;;;-145.69;67.69
1726;BME280;41776;48.260;8.928;2024-02-23T03:29:38;52347.34;;;-145.69;67.80
1726;BME280;41776;48.260;8.928;2024-02-23T03:32:05;52329.53;;;-145.69;68.05
1726;BME280;41776;48.260;8.928;2024-02-23T03:34:32;52369.13;;;-145.69;68.06
1726;BME280;41776;48.260;8.928;2024-02-23T03:36:59;52329.53;;;-145.69;68.11
1726;BME280;41776;48.260;8.928;2024-02-23T03:39:27;52333.47;;;-145.69;68.25
1726;BME280;41776;48.260;8.928;2024-02-23T03:41:54;52331.50;;;-145.69;68.02
1726;BME280;41776;48.260;8.928;2024-02-23T03:44:21;52333.47;;;-145.69;67.72
1726;BME280;41776;48.260;8.928;2024-02-23T03:46:47;52333.47;;;-145.69;68.07
1726;BME280;41776;48.260;8.928;2024-02-23T03:49:13;52321.59;;;-145.69;68.29
1726;BME280;41776;48.260;8.928;2024-02-23T03:51:41;52337.44;;;-145.69;68.47
1726;BME280;41776;48.260;8.928;2024-02-23T03:54:09;52343.38;;;-145.69;68.69
1726;BME280;41776;48.260;8.928;2024-02-23T03:56:38;52321.59;;;-145.69;67.87
1726;BME280;41776;48.260;8.928;2024-02-23T03:59:06;52319.63;;;-145.69;68.05
1726;BME280;41776;48.260;8.928;2024-02-23T04:01:34;52317.66;;;-145.69;67.67
1726;BME280;41776;48.260;8.928;2024-02-23T04:04:01;52329.53;;;-145.69;68.27
1726;BME280;41776;48.260;8.928;2024-02-23T04:06:27;52333.47;;;-145.69;68.17
1726;BME280;41776;48.260;8.928;2024-02-23T04:08:54;52329.53;;;-145.69;67.59
1726;BME280;41776;48.260;8.928;2024-02-23T04:11:21;52341.41;;;-145.69;67.56
1726;BME280;41776;48.260;8.928;2024-02-23T04:13:48;52307.75;;;-145.69;68.82
1726;BME280;41776;48.260;8.928;2024-02-23T04:16:14;52351.31;;;-145.69;67.21
1726;BME280;41776;48.260;8.928;2024-02-23T04:18:41;52297.84;;;-145.69;67.28
1726;BME280;41776;48.260;8.928;2024-02-23T04:21:07;52353.28;;;-145.69;66.45
1726;BME280;41776;48.260;8.928;2024-02-23T04:23:34;52349.31;;;-145.69;66.48
1726;BME280;41776;48.260;8.928;2024-02-23T04:26:00;52353.28;;;-145.69;65.83
1726;BME280;41776;48.260;8.928;2024-02-23T04:28:28;52361.22;;;-145.69;64.93
1726;BME280;41776;48.260;8.928;2024-02-23T04:30:56;52361.22;;;-145.69;65.75
1726;BME280;41776;48.260;8.928;2024-02-23T04:33:22;52349.31;;;-145.69;66.66
1726;BME280;41776;48.260;8.928;2024-02-23T04:35:49;52325.56;;;-145.69;67.33
1726;BME280;41776;48.260;8.928;2024-02-23T04:38:15;52369.13;;;-145.69;67.35
1726;BME280;41776;48.260;8.928;2024-02-23T04:40:42;52369.13;;;-145.69;67.66
1726;BME280;41776;48.260;8.928;2024-02-23T04:43:08;52353.28;;;-145.69;67.70
1726;BME280;41776;48.260;8.928;2024-02-23T04:45:36;52347.34;;;-145.69;67.46
1726;BME280;41776;48.260;8.928;2024-02-23T04:48:03;52351.31;;;-145.69;67.25
1726;BME280;41776;48.260;8.928;2024-02-23T04:50:29;52343.38;;;-145.69;67.35
1726;BME280;41776;48.260;8.928;2024-02-23T04:52:56;52341.41;;;-145.69;67.00
1726;BME280;41776;48.260;8.928;2024-02-23T04:55:22;52363.19;;;-145.69;67.03
1726;BME280;41776;48.260;8.928;2024-02-23T04:57:49;52345.38;;;-145.69;66.72
1726;BME280;41776;48.260;8.928;2024-02-23T05:00:15;52355.28;;;-145.69;67.05
1726;BME280;41776;48.260;8.928;2024-02-23T05:02:46;52317.66;;;-145.69;66.80
1726;BME280;41776;48.260;8.928;2024-02-23T05:05:13;52341.41;;;-145.69;66.91
1726;BME280;41776;48.260;8.928;2024-02-23T05:07:39;52321.59;;;-145.69;65.89
1726;BME280;41776;48.260;8.928;2024-02-23T05:10:06;52339.44;;;-145.69;65.43
1726;BME280;41776;48.260;8.928;2024-02-23T05:12:33;52341.41;;;-145.69;66.03
1726;BME280;41776;48.260;8.928;2024-02-23T05:14:59;52325.56;;;-145.69;66.30
1726;BME280;41776;48.260;8.928;2024-02-23T05:17:26;52388.94;;;-145.69;66.15
1726;BME280;41776;48.260;8.928;2024-02-23T05:19:54;52341.41;;;-145.69;66.39
1726;BME280;41776;48.260;8.928;2024-02-23T05:22:20;52384.97;;;-145.69;66.53
1726;BME280;41776;48.260;8.928;2024-02-23T05:24:46;52363.19;;;-145.69;66.56
1726;BME280;41776;48.260;8.928;2024-02-23T05:27:14;52357.25;;;-145.69;66.49
1726;BME280;41776;48.260;8.928;2024-02-23T05:29:40;52345.38;;;-145.69;66.44
1726;BME280;41776;48.260;8.928;2024-02-23T05:32:06;52327.53;;;-145.69;66.12
1726;BME280;41776;48.260;8.928;2024-02-23T05:34:33;52329.53;;;-145.69;65.83
1726;BME280;41776;48.260;8.928;2024-02-23T05:37:02;52371.13;;;-145.69;66.20
1726;BME280;41776;48.260;8.928;2024-02-23T05:39:28;52357.25;;;-145.69;66.74
1726;BME280;41776;48.260;8.928;2024-02-23T05:41:55;52337.44;;;-145.69;66.28
1726;BME280;41776;48.260;8.928;2024-02-23T05:44:22;52323.59;;;-145.69;66.16
1726;BME280;41776;48.260;8.928;2024-02-23T05:46:48;52353.28;;;-145.69;66.24
1726;BME280;41776;48.260;8.928;2024-02-23T05:49:15;52361.22;;;-145.69;66.79
1726;BME280;41776;48.260;8.928;2024-02-23T05:51:41;52377.06;;;-145.69;67.05
1726;BME280;41776;48.260;8.928;2024-02-23T05:54:10;52327.53;;;-145.69;67.03
1726;BME280;41776;48.260;8.928;2024-02-23T05:56:36;52357.25;;;-145.69;67.21
1726;BME280;41776;48.260;8.928;2024-02-23T05:59:03;52357.25;;;-145.69;66.66
1726;BME280;41776;48.260;8.928;2024-02-23T06:01:31;52353.28;;;-145.69;67.23
1726;BME280;41776;48.260;8.928;2024-02-23T06:03:57;52315.66;;;-145.69;67.08
1726;BME280;41776;48.260;8.928;2024-02-23T06:06:24;52349.31;;;-145.69;66.89
1726;BME280;41776;48.260;8.928;2024-02-23T06:08:50;52363.19;;;-145.69;66.85
1726;BME280;41776;48.260;8.928;2024-02-23T06:11:18;52355.28;;;-145.69;66.75
1726;BME280;41776;48.260;8.928;2024-02-23T06:13:44;52353.28;;;-145.69;66.55
1726;BME280;41776;48.260;8.928;2024-02-23T06:16:11;52359.22;;;-145.69;66.80
1726;BME280;41776;48.260;8.928;2024-02-23T06:18:38;52361.22;;;-145.69;66.60
1726;BME280;41776;48.260;8.928;2024-02-23T06:21:11;52335.47;;;-145.69;66.28
1726;BME280;41776;48.260;8.928;2024-02-23T06:23:38;52353.28;;;-145.69;66.86
1726;BME280;41776;48.260;8.928;2024-02-23T06:26:05;52373.09;;;-145.69;66.52
1726;BME280;41776;48.260;8.928;2024-02-23T06:28:33;52323.59;;;-145.69;66.53
1726;BME280;41776;48.260;8.928;2024-02-23T06:31:00;52321.59;;;-145.69;66.99
1726;BME280;41776;48.260;8.928;2024-02-23T06:33:26;52367.16;;;-145.69;67.17
1726;BME280;41776;48.260;8.928;2024-02-23T06:35:53;52335.47;;;-145.69;67.52
1726;BME280;41776;48.260;8.928;2024-02-23T06:38:19;52333.47;;;-145.69;67.15
1726;BME280;41776;48.260;8.928;2024-02-23T06:40:46;52319.63;;;-145.69;67.03
1726;BME280;41776;48.260;8.928;2024-02-23T06:43:12;52375.06;;;-145.69;67.06
1726;BME280;41776;48.260;8.928;2024-02-23T06:45:40;52347.34;;;-145.69;67.33
1726;BME280;41776;48.260;8.928;2024-02-23T06:48:09;52381.00;;;-145.69;67.45
1726;BME280;41776;48.260;8.928;2024-02-23T06:50:36;52345.38;;;-145.69;67.50
1726;BME280;41776;48.260;8.928;2024-02-23T06:53:03;52384.97;;;-145.69;67.42
1726;BME280;41776;48.260;8.928;2024-02-23T06:55:29;52355.28;;;-145.69;67.80
1726;BME280;41776;48.260;8.928;2024-02-23T06:57:56;52353.28;;;-145.69;67.80
1726;BME280;41776;48.260;8.928;2024-02-23T07:00:22;52373.09;;;-145.69;67.23
1726;BME280;41776;48.260;8.928;2024-02-23T07:02:50;52339.44;;;-145.69;67.17
1726;BME280;41776;48.260;8.928;2024-02-23T07:05:16;52361.22;;;-145.69;66.98
1726;BME280;41776;48.260;8.928;2024-02-23T07:07:43;52329.53;;;-145.69;67.55
1726;BME280;41776;48.260;8.928;2024-02-23T07:10:09;52359.22;;;-145.69;67.70
1726;BME280;41776;48.260;8.928;2024-02-23T07:12:37;52353.28;;;-145.69;67.83
1726;BME280;41776;48.260;8.928;2024-02-23T07:15:04;52349.31;;;-145.69;68.22
1726;BME280;41776;48.260;8.928;2024-02-23T07:17:31;52337.44;;;-145.69;67.88
1726;BME280;41776;48.260;8.928;2024-02-23T07:19:59;52357.25;;;-145.69;68.01
1726;BME280;41776;48.260;8.928;2024-02-23T07:22:30;52357.25;;;-145.69;68.09
1726;BME280;41776;48.260;8.928;2024-02-23T07:24:57;52325.56;;;-145.69;67.69
1726;BME280;41776;48.260;8.928;2024-02-23T07:27:23;52349.31;;;-145.69;67.65
1726;BME280;41776;48.260;8.928;2024-02-23T07:29:50;52359.22;;;-145.69;67.53
1726;BME280;41776;48.260;8.928;2024-02-23T07:32:16;52353.28;;;-145.69;67.83
1726;BME280;41776;48.260;8.928;2024-02-23T07:34:42;52349.31;;;-145.69;66.83
1726;BME280;41776;48.260;8.928;2024-02-23T07:37:10;52313.69;;;-145.69;65.58
1726;BME280;41776;48.260;8.928;2024-02-23T07:39:37;52333.47;;;-145.69;65.41
1726;BME280;41776;48.260;8.928;2024-02-23T07:42:03;52351.31;;;-145.69;65.89
1726;BME280;41776;48.260;8.928;2024-02-23T07:44:31;52347.34;;;-145.69;65.23
1726;BME280;41776;48.260;8.928;2024-02-23T07:46:57;52388.94;;;-145.69;65.73
1726;BME280;41776;48.260;8.928;2024-02-23T07:49:24;52333.47;;;-145.69;64.55
1726;BME280;41776;48.260;8.928;2024-02-23T07:51:52;52361.22;;;-145.69;65.10
1726;BME280;41776;48.260;8.928;2024-02-23T07:54:20;52363.19;;;-145.69;65.97
1726;BME280;41776;48.260;8.928;2024-02-23T07:56:46;52321.59;;;-145.69;65.83
1726;BME280;41776;48.260;8.928;2024-02-23T07:59:13;52355.28;;;-145.69;66.45
1726;BME280;41776;48.260;8.928;2024-02-23T08:01:39;52325.56;;;-145.69;65.27
1726;BME280;41776;48.260;8.928;2024-02-23T08:04:06;52343.38;;;-145.69;65.34
1726;BME280;41776;48.260;8.928;2024-02-23T08:06:32;52345.38;;;-145.69;65.21
1726;BME280;41776;48.260;8.928;2024-02-23T08:08:59;52363.19;;;-145.69;64.19
1726;BME280;41776;48.260;8.928;2024-02-23T08:11:27;52365.16;;;-145.69;64.87
1726;BME280;41776;48.260;8.928;2024-02-23T08:13:53;52363.19;;;-145.69;63.90
1726;BME280;41776;48.260;8.928;2024-02-23T08:16:20;52303.78;;;-145.69;64.41
1726;BME280;41776;48.260;8.928;2024-02-23T08:18:46;52347.34;;;-145.69;64.33
1726;BME280;41776;48.260;8.928;2024-02-23T08:21:12;52309.72;;;-145.69;65.72
1726;BME280;41776;48.260;8.928;2024-02-23T08:23:39;52371.13;;;-145.69;65.91
1726;BME280;41776;48.260;8.928;2024-02-23T08:26:06;52345.38;;;-145.69;66.13
1726;BME280;41776;48.260;8.928;2024-02-23T08:28:33;52339.44;;;-145.69;65.22
1726;BME280;41776;48.260;8.928;2024-02-23T08:31:00;52339.44;;;-145.69;63.23
1726;BME280;41776;48.260;8.928;2024-02-23T08:33:26;52331.50;;;-145.69;64.63
1726;BME280;41776;48.260;8.928;2024-02-23T08:35:53;52384.97;;;-145.69;64.14
1726;BME280;41776;48.260;8.928;2024-02-23T08:38:20;52341.41;;;-145.69;63.31
1726;BME280;41776;48.260;8.928;2024-02-23T08:40:46;52353.28;;;-145.69;64.29
1726;BME280;41776;48.260;8.928;2024-02-23T08:43:13;52335.47;;;-145.69;64.32
1726;BME280;41776;48.260;8.928;2024-02-23T08:45:41;52333.47;;;-145.69;63.64
1726;BME280;41776;48.260;8.928;2024-02-23T08:48:07;52345.38;;;-145.69;62.07
1726;BME280;41776;48.260;8.928;2024-02-23T08:50:34;52349.31;;;-145.69;61.27
1726;BME280;41776;48.260;8.928;2024-02-23T08:53:00;52325.56;;;-145.69;62.24
1726;BME280;41776;48.260;8.928;2024-02-23T08:55:27;52337.44;;;-145.69;61.46
1726;BME280;41776;48.260;8.928;2024-02-23T08:57:54;52321.59;;;-145.69;63.36
1726;BME280;41776;48.260;8.928;2024-02-23T09:00:20;52349.31;;;-145.69;61.98
1726;BME280;41776;48.260;8.928;2024-02-23T09:02:49;52317.66;;;-145.69;61.66
1726;BME280;41776;48.260;8.928;2024-02-23T09:05:15;52363.19;;;-145.69;60.24
1726;BME280;41776;48.260;8.928;2024-02-23T09:07:42;52345.38;;;-145.69;60.81
1726;BME280;41776;48.260;8.928;2024-02-23T09:10:09;52317.66;;;-145.69;59.18
1726;BME280;41776;48.260;8.928;2024-02-23T09:12:35;52325.56;;;-145.69;60.89
1726;BME280;41776;48.260;8.928;2024-02-23T09:15:02;52313.69;;;-145.69;61.75
1726;BME280;41776;48.260;8.928;2024-02-23T09:17:28;52325.56;;;-145.69;61.82
1726;BME280;41776;48.260;8.928;2024-02-23T09:19:56;52297.84;;;-145.69;61.94
1726;BME280;41776;48.260;8.928;2024-02-23T09:22:23;52295.84;;;-145.69;61.86
1726;BME280;41776;48.260;8.928;2024-02-23T09:24:49;52301.81;;;-145.69;57.33
1726;BME280;41776;48.260;8.928;2024-02-23T09:27:15;52305.75;;;-145.69;58.74
1726;BME280;41776;48.260;8.928;2024-02-23T09:29:42;52293.88;;;-145.69;55.06
1726;BME280;41776;48.260;8.928;2024-02-23T09:32:08;52321.59;;;-145.69;59.74
1726;BME280;41776;48.260;8.928;2024-02-23T09:34:35;52309.72;;;-145.69;54.79
1726;BME280;41776;48.260;8.928;2024-02-23T09:37:03;52295.84;;;-145.69;54.62
1726;BME280;41776;48.260;8.928;2024-02-23T09:39:29;52285.97;;;-145.69;56.64
1726;BME280;41776;48.260;8.928;2024-02-23T09:41:56;52295.84;;;-145.69;57.44
1726;BME280;41776;48.260;8.928;2024-02-23T09:44:23;52301.81;;;-145.69;56.02
1726;BME280;41776;48.260;8.928;2024-02-23T09:46:49;52305.75;;;-145.69;59.37
1726;BME280;41776;48.260;8.928;2024-02-23T09:49:16;52285.97;;;-145.69;56.82
1726;BME280;41776;48.260;8.928;2024-02-23T09:51:43;52309.72;;;-145.69;57.80
1726;BME280;41776;48.260;8.928;2024-02-23T09:54:11;52307.75;;;-145.69;60.43
1726;BME280;41776;48.260;8.928;2024-02-23T09:56:38;52301.81;;;-145.69;55.77
1726;BME280;41776;48.260;8.928;2024-02-23T09:59:05;52293.88;;;-145.69;53.91
1726;BME280;41776;48.260;8.928;2024-02-23T10:01:32;52283.97;;;-145.69;56.50
1726;BME280;41776;48.260;8.928;2024-02-23T10:04:00;52266.16;;;-145.69;53.74
1726;BME280;41776;48.260;8.928;2024-02-23T10:06:28;52293.88;;;-145.69;53.15
1726;BME280;41776;48.260;8.928;2024-02-23T10:08:54;52278.03;;;-145.69;55.49
1726;BME280;41776;48.260;8.928;2024-02-23T10:11:23;52262.19;;;-145.69;56.33
1726;BME280;41776;48.260;8.928;2024-02-23T10:13:50;52274.06;;;-145.69;53.94
1726;BME280;41776;48.260;8.928;2024-02-23T10:16:17;52282.00;;;-145.69;54.53
1726;BME280;41776;48.260;8.928;2024-02-23T10:18:45;52274.06;;;-145.69;54.07
1726;BME280;41776;48.260;8.928;2024-02-23T10:21:12;52287.94;;;-145.69;52.04
1726;BME280;41776;48.260;8.928;2024-02-23T10:23:38;52303.78;;;-145.69;52.95
1726;BME280;41776;48.260;8.928;2024-02-23T10:26:05;52256.25;;;-145.69;49.25
1726;BME280;41776;48.260;8.928;2024-02-23T10:28:34;52285.97;;;-145.69;47.96
1726;BME280;41776;48.260;8.928;2024-02-23T10:31:01;52264.16;;;-145.69;50.20
1726;BME280;41776;48.260;8.928;2024-02-23T10:33:28;52274.06;;;-145.69;50.95
1726;BME280;41776;48.260;8.928;2024-02-23T10:35:56;52282.00;;;-145.69;47.23
1726;BME280;41776;48.260;8.928;2024-02-23T10:38:23;52230.50;;;-145.69;48.54
1726;BME280;41776;48.260;8.928;2024-02-23T10:40:53;52282.00;;;-145.69;47.49
1726;BME280;41776;48.260;8.928;2024-02-23T10:43:28;52264.16;;;-145.69;47.64
1726;BME280;41776;48.260;8.928;2024-02-23T10:45:57;52258.22;;;-145.69;48.53
1726;BME280;41776;48.260;8.928;2024-02-23T10:48:24;52272.09;;;-145.69;48.86
1726;BME280;41776;48.260;8.928;2024-02-23T10:50:50;52220.59;;;-145.69;47.36
1726;BME280;41776;48.260;8.928;2024-02-23T10:53:17;52291.91;;;-145.69;45.01
1726;BME280;41776;48.260;8.928;2024-02-23T10:55:46;52230.50;;;-145.69;44.94
1726;BME280;41776;48.260;8.928;2024-02-23T10:58:13;52262.19;;;-145.69;45.89
1726;BME280;41776;48.260;8.928;2024-02-23T11:00:41;52262.19;;;-145.69;44.73
1726;BME280;41776;48.260;8.928;2024-02-23T11:03:12;52226.53;;;-145.69;46.00
1726;BME280;41776;48.260;8.928;2024-02-23T11:05:40;52254.28;;;-145.69;45.34
1726;BME280;41776;48.260;8.928;2024-02-23T11:08:07;52260.22;;;-145.69;45.44
1726;BME280;41776;48.260;8.928;2024-02-23T11:10:41;52230.50;;;-145.69;45.65
1726;BME280;41776;48.260;8.928;2024-02-23T11:13:08;52246.34;;;-145.69;45.84
1726;BME280;41776;48.260;8.928;2024-02-23T11:15:34;52252.28;;;-145.69;45.38
1726;BME280;41776;48.260;8.928;2024-02-23T11:18:24;52238.44;;;-145.69;44.88
1726;BME280;41776;48.260;8.928;2024-02-23T11:20:54;52222.59;;;-145.69;44.12
1726;BME280;41776;48.260;8.928;2024-02-23T11:23:21;52258.22;;;-145.69;44.11
1726;BME280;41776;48.260;8.928;2024-02-23T11:25:58;52234.47;;;-145.69;44.64
1726;BME280;41776;48.260;8.928;2024-02-23T11:28:25;52242.38;;;-145.69;45.20
1726;BME280;41776;48.260;8.928;2024-02-23T11:30:52;52214.66;;;-145.69;44.90
1726;BME280;41776;48.260;8.928;2024-02-23T11:33:27;52218.63;;;-145.69;44.62
1726;BME280;41776;48.260;8.928;2024-02-23T11:35:53;52230.50;;;-145.69;43.26
1726;BME280;41776;48.260;8.928;2024-02-23T11:38:21;52226.53;;;-145.69;43.93
1726;BME280;41776;48.260;8.928;2024-02-23T11:40:48;52218.63;;;-145.69;43.84
1726;BME280;41776;48.260;8.928;2024-02-23T11:43:14;52240.41;;;-145.69;43.89
1726;BME280;41776;48.260;8.928;2024-02-23T11:45:46;52206.75;;;-145.69;43.76
1726;BME280;41776;48.260;8.928;2024-02-23T11:48:13;52262.19;;;-145.69;43.69
1726;BME280;41776;48.260;8.928;2024-02-23T11:50:40;52230.50;;;-145.69;42.82
1726;BME280;41776;48.260;8.928;2024-02-23T11:53:08;52220.59;;;-145.69;43.60
1726;BME280;41776;48.260;8.928;2024-02-23T11:55:35;52224.56;;;-145.69;43.98
1726;BME280;41776;48.260;8.928;2024-02-23T11:58:01;52224.56;;;-145.69;43.78
1726;BME280;41776;48.260;8.928;2024-02-23T12:00:28;52246.34;;;-145.69;43.71
1726;BME280;41776;48.260;8.928;2024-02-23T12:02:55;52250.31;;;-145.69;43.67
1726;BME280;41776;48.260;8.928;2024-02-23T12:05:21;52222.59;;;-145.69;43.26
1726;BME280;41776;48.260;8.928;2024-02-23T12:07:49;52246.34;;;-145.69;44.29
1726;BME280;41776;48.260;8.928;2024-02-23T12:10:16;52216.66;;;-145.69;44.60
1726;BME280;41776;48.260;8.928;2024-02-23T12:12:43;52256.25;;;-145.69;44.17
1726;BME280;41776;48.260;8.928;2024-02-23T12:15:09;52240.41;;;-145.69;45.16
1726;BME280;41776;48.260;8.928;2024-02-23T12:17:36;52278.03;;;-145.69;44.36
1726;BME280;41776;48.260;8.928;2024-02-23T12:20:03;52234.47;;;-145.69;44.83
1726;BME280;41776;48.260;8.928;2024-02-23T12:22:30;52214.66;;;-145.69;44.35
1726;BME280;41776;48.260;8.928;2024-02-23T12:24:58;52260.22;;;-145.69;44.72
1726;BME280;41776;48.260;8.928;2024-02-23T12:27:25;52280.00;;;-145.69;43.82
1726;BME280;41776;48.260;8.928;2024-02-23T12:29:54;52234.47;;;-145.69;43.57
1726;BME280;41776;48.260;8.928;2024-02-23T12:32:21;52254.28;;;-145.69;43.79
1726;BME280;41776;48.260;8.928;2024-02-23T12:34:47;52192.88;;;-145.69;43.69
1726;BME280;41776;48.260;8.928;2024-02-23T12:37:14;52230.50;;;-145.69;44.37
1726;BME280;41776;48.260;8.928;2024-02-23T12:39:41;52236.44;;;-145.69;44.74
1726;BME280;41776;48.260;8.928;2024-02-23T12:42:09;52238.44;;;-145.69;44.93
1726;BME280;41776;48.260;8.928;2024-02-23T12:44:35;52270.13;;;-145.69;44.68
1726;BME280;41776;48.260;8.928;2024-02-23T12:47:02;52270.13;;;-145.69;45.61
1726;BME280;41776;48.260;8.928;2024-02-23T12:49:28;52240.41;;;-145.69;44.80